createdAt,value
2022-09-07T00:01:00.750Z,100866.91
2022-09-07T00:03:27.865Z,100864.25
2022-09-07T00:05:54.617Z,100856.16
2022-09-07T00:08:23.308Z,100878.31
2022-09-07T00:10:59.503Z,100870.41
2022-09-07T00:13:28.601Z,100860.34
2022-09-07T00:15:55.618Z,100853.59
2022-09-07T00:18:22.262Z,100828.63
2022-09-07T00:21:01.041Z,100834.75
2022-09-07T00:23:30.019Z,100842.03
2022-09-07T00:26:06.185Z,100868.28
2022-09-07T00:28:33.144Z,100861.84
2022-09-07T00:30:59.949Z,100875.91
2022-09-07T00:33:27.012Z,100883.34
2022-09-07T00:35:54.192Z,100881.34
2022-09-07T00:38:20.867Z,100881.50
2022-09-07T00:40:47.469Z,100871.91
2022-09-07T00:43:18.258Z,100880.03
2022-09-07T00:45:44.818Z,100871.91
2022-09-07T00:48:17.118Z,100863.97
2022-09-07T00:50:48.488Z,100858.69
2022-09-07T00:53:21.336Z,100843.69
2022-09-07T00:55:51.146Z,100840.38
2022-09-07T00:58:19.947Z,100837.41
2022-09-07T01:00:48.778Z,100842.03
2022-09-07T01:03:19.081Z,100845.31
2022-09-07T01:05:48.466Z,100825.53
2022-09-07T01:08:15.362Z,100826.00
2022-09-07T01:10:41.976Z,100821.53
2022-09-07T01:13:08.611Z,100806.34
2022-09-07T01:16:14.233Z,100807.19
2022-09-07T01:19:00.205Z,100792.66
2022-09-07T01:21:53.057Z,100786.88
2022-09-07T01:24:41.818Z,100794.78
2022-09-07T01:27:20.750Z,100792.66
2022-09-07T01:30:06.323Z,100795.63
2022-09-07T01:32:54.402Z,100800.06
2022-09-07T01:35:31.781Z,100809.81
2022-09-07T01:38:29.288Z,100807.66
2022-09-07T01:41:03.272Z,100803.38
2022-09-07T01:43:51.581Z,100796.28
2022-09-07T01:46:42.616Z,100803.53
2022-09-07T01:49:14.437Z,100804.50
2022-09-07T01:51:47.303Z,100810.31
2022-09-07T01:54:32.104Z,100811.78
2022-09-07T01:57:04.397Z,100818.56
2022-09-07T01:59:44.617Z,100811.16
2022-09-07T02:02:16.798Z,100800.06
2022-09-07T02:04:55.519Z,100809.13
2022-09-07T02:07:28.448Z,100800.72
2022-09-07T02:10:02.566Z,100798.41
2022-09-07T02:12:40.686Z,100802.06
2022-09-07T02:15:16.556Z,100781.41
2022-09-07T02:17:49.060Z,100783.06
2022-09-07T02:20:22.017Z,100775.41
2022-09-07T02:22:55.087Z,100775.41
2022-09-07T02:25:26.737Z,100767.69
2022-09-07T02:28:00.165Z,100746.34
2022-09-07T02:30:26.698Z,100753.09
2022-09-07T02:32:54.097Z,100750.34
2022-09-07T02:35:20.910Z,100750.63
2022-09-07T02:37:48.867Z,100739.59
2022-09-07T02:40:15.354Z,100740.41
2022-09-07T02:42:43.335Z,100748.34
2022-09-07T02:45:12.644Z,100756.63
2022-09-07T02:48:14.320Z,100758.41
2022-09-07T02:50:56.372Z,100759.63
2022-09-07T02:53:52.640Z,100763.56
2022-09-07T02:56:37.877Z,100749.50
2022-09-07T02:59:22.897Z,100756.97
2022-09-07T03:02:25.115Z,100757.63
2022-09-07T03:05:11.505Z,100750.53
2022-09-07T03:07:51.413Z,100746.75
2022-09-07T03:10:19.025Z,100749.38
2022-09-07T03:12:48.493Z,100744.94
2022-09-07T03:15:18.925Z,100741.97
2022-09-07T03:17:45.448Z,100743.13
2022-09-07T03:20:12.697Z,100744.94
2022-09-07T03:22:39.583Z,100746.25
2022-09-07T03:25:06.892Z,100750.22
2022-09-07T03:27:33.689Z,100747.09
2022-09-07T03:30:00.375Z,100753.88
2022-09-07T03:32:32.770Z,100739.00
2022-09-07T03:35:00.065Z,100740.66
2022-09-07T03:37:26.840Z,100740.16
2022-09-07T03:39:53.472Z,100743.44
2022-09-07T03:42:20.642Z,100737.34
2022-09-07T03:44:49.422Z,100738.66
2022-09-07T03:47:17.189Z,100729.44
2022-09-07T03:49:44.142Z,100735.72
2022-09-07T03:52:10.668Z,100730.09
2022-09-07T03:54:39.576Z,100733.03
2022-09-07T03:57:06.814Z,100731.09
2022-09-07T03:59:33.343Z,100729.75
2022-09-07T04:02:00.156Z,100729.44
2022-09-07T04:04:27.392Z,100711.75
2022-09-07T04:06:54.071Z,100716.72
2022-09-07T04:09:20.608Z,100731.56
2022-09-07T04:11:47.187Z,100722.66
2022-09-07T04:14:13.780Z,100722.50
2022-09-07T04:16:40.703Z,100727.28
2022-09-07T04:19:07.247Z,100728.94
2022-09-07T04:21:34.509Z,100723.78
2022-09-07T04:24:01.389Z,100721.50
2022-09-07T04:26:33.285Z,100727.44
2022-09-07T04:29:03.412Z,100719.50
2022-09-07T04:31:30.947Z,100722.31
2022-09-07T04:33:57.432Z,100722.50
2022-09-07T04:36:24.941Z,100726.06
2022-09-07T04:38:59.746Z,100713.03
2022-09-07T04:41:27.790Z,100711.06
2022-09-07T04:43:56.689Z,100719.31
2022-09-07T04:46:26.234Z,100710.88
2022-09-07T04:48:58.194Z,100707.59
2022-09-07T04:51:27.041Z,100715.16
2022-09-07T04:53:55.345Z,100720.63
2022-09-07T04:56:22.804Z,100716.16
2022-09-07T04:58:49.916Z,100716.66
2022-09-07T05:01:19.465Z,100721.56
2022-09-07T05:03:47.109Z,100719.41
2022-09-07T05:06:14.515Z,100711.19
2022-09-07T05:08:47.550Z,100718.47
2022-09-07T05:11:15.242Z,100710.72
2022-09-07T05:13:42.322Z,100704.75
2022-09-07T05:16:20.472Z,100706.75
2022-09-07T05:18:51.417Z,100704.47
2022-09-07T05:21:23.505Z,100697.75
2022-09-07T05:23:51.666Z,100704.31
2022-09-07T05:26:20.109Z,100705.31
2022-09-07T05:28:47.096Z,100707.16
2022-09-07T05:31:20.481Z,100711.75
2022-09-07T05:36:37.045Z,100713.41
2022-09-07T05:39:05.045Z,100706.47
2022-09-07T05:41:31.882Z,100710.44
2022-09-07T05:46:45.138Z,100705.47
2022-09-07T05:49:11.740Z,100695.59
2022-09-07T05:51:38.848Z,100699.88
2022-09-07T05:54:05.588Z,100704.94
2022-09-07T05:56:35.946Z,100715.34
2022-09-07T05:59:02.619Z,100723.69
2022-09-07T06:01:29.179Z,100737.69
2022-09-07T06:03:55.757Z,100740.13
2022-09-07T06:06:22.333Z,100730.47
2022-09-07T06:08:51.202Z,100739.38
2022-09-07T06:11:20.522Z,100731.59
2022-09-07T06:13:47.161Z,100735.22
2022-09-07T06:16:15.713Z,100738.47
2022-09-07T06:18:44.435Z,100733.94
2022-09-07T06:21:13.725Z,100733.00
2022-09-07T06:23:41.907Z,100734.34
2022-09-07T06:26:09.396Z,100748.81
2022-09-07T06:28:38.681Z,100749.72
2022-09-07T06:31:10.780Z,100755.19
2022-09-07T06:33:37.599Z,100751.31
2022-09-07T06:36:06.925Z,100761.13
2022-09-07T06:38:39.475Z,100770.75
2022-09-07T06:43:57.812Z,100769.66
2022-09-07T06:49:12.379Z,100773.59
2022-09-07T06:51:38.963Z,100780.38
2022-09-07T06:56:52.092Z,100792.63
2022-09-07T06:59:18.691Z,100799.44
2022-09-07T07:01:45.244Z,100807.03
2022-09-07T07:04:11.868Z,100805.56
2022-09-07T07:06:39.212Z,100802.22
2022-09-07T07:09:08.387Z,100803.38
2022-09-07T07:11:37.265Z,100807.47
2022-09-07T07:14:04.175Z,100805.75
2022-09-07T07:16:30.784Z,100805.28
2022-09-07T07:18:58.045Z,100798.03
2022-09-07T07:21:24.710Z,100800.19
2022-09-07T07:23:53.087Z,100801.75
2022-09-07T07:26:22.358Z,100813.94
2022-09-07T07:29:06.589Z,100822.50
2022-09-07T07:31:34.587Z,100819.38
2022-09-07T07:34:03.700Z,100822.66
2022-09-07T07:36:30.893Z,100825.94
2022-09-07T07:44:17.533Z,100805.28
2022-09-07T07:46:48.112Z,100817.47
2022-09-07T07:49:14.680Z,100830.94
2022-09-07T07:54:27.725Z,100815.34
2022-09-07T07:56:54.177Z,100822.28
2022-09-07T07:59:20.705Z,100828.44
2022-09-07T08:01:47.324Z,100823.94
2022-09-07T08:04:13.962Z,100814.66
2022-09-07T08:06:42.594Z,100802.31
2022-09-07T08:09:09.185Z,100806.09
2022-09-07T08:11:35.688Z,100813.50
2022-09-07T08:14:05.916Z,100825.41
2022-09-07T08:16:33.107Z,100822.72
2022-09-07T08:18:59.707Z,100820.38
2022-09-07T08:21:26.312Z,100828.28
2022-09-07T08:23:52.795Z,100830.06
2022-09-07T08:26:19.281Z,100817.81
2022-09-07T08:28:46.247Z,100837.84
2022-09-07T08:31:15.412Z,100833.63
2022-09-07T08:33:42.640Z,100835.94
2022-09-07T08:36:12.985Z,100829.25
2022-09-07T08:38:40.410Z,100830.88
2022-09-07T08:41:40.607Z,100833.56
2022-09-07T08:44:18.532Z,100831.66
2022-09-07T08:46:55.734Z,100838.16
2022-09-07T08:49:45.544Z,100832.47
2022-09-07T08:52:21.153Z,100837.75
2022-09-07T08:54:58.810Z,100838.50
2022-09-07T08:57:30.859Z,100836.81
2022-09-07T09:00:27.366Z,100847.47
2022-09-07T09:05:52.727Z,100844.41
2022-09-07T09:09:02.482Z,100852.47
2022-09-07T09:11:50.640Z,100848.41
2022-09-07T09:14:39.441Z,100842.41
2022-09-07T09:17:44.524Z,100850.69
2022-09-07T09:20:24.023Z,100849.41
2022-09-07T09:23:18.950Z,100845.50
2022-09-07T09:25:57.292Z,100844.19
2022-09-07T09:28:26.452Z,100853.25
2022-09-07T09:30:55.452Z,100848.94
2022-09-07T09:33:25.910Z,100858.44
2022-09-07T09:35:59.172Z,100857.50
2022-09-07T09:38:39.485Z,100861.63
2022-09-07T09:41:08.812Z,100866.91
2022-09-07T09:43:40.830Z,100866.66
2022-09-07T09:46:29.159Z,100872.50
2022-09-07T09:49:04.943Z,100870.69
2022-09-07T09:54:34.481Z,100870.69
2022-09-07T09:57:00.987Z,100868.41
2022-09-07T10:05:42.525Z,100883.50
2022-09-07T10:08:28.934Z,100871.59
2022-09-07T10:11:07.633Z,100872.41
2022-09-07T10:13:44.072Z,100863.38
2022-09-07T10:16:11.773Z,100871.19
2022-09-07T10:18:40.627Z,100864.81
2022-09-07T10:21:25.460Z,100861.31
2022-09-07T10:23:57.207Z,100865.41
2022-09-07T10:26:35.598Z,100864.41
2022-09-07T10:29:08.492Z,100865.22
2022-09-07T10:31:56.080Z,100860.94
2022-09-07T10:34:41.419Z,100860.69
2022-09-07T10:37:10.979Z,100848.56
2022-09-07T10:40:26.053Z,100858.28
2022-09-07T10:43:22.789Z,100862.88
2022-09-07T10:46:07.690Z,100853.44
2022-09-07T10:49:05.046Z,100832.75
2022-09-07T10:51:38.860Z,100849.63
2022-09-07T10:54:36.011Z,100846.44
2022-09-07T10:57:32.580Z,100847.88
2022-09-07T11:00:15.008Z,100851.28
2022-09-07T11:06:10.880Z,100846.63
2022-09-07T11:12:01.129Z,100836.50
2022-09-07T11:14:31.485Z,100827.13
2022-09-07T11:17:02.430Z,100838.47
2022-09-07T11:19:35.442Z,100831.03
2022-09-07T11:22:16.154Z,100833.59
2022-09-07T11:25:35.837Z,100829.63
2022-09-07T11:28:12.644Z,100826.53
2022-09-07T11:30:50.565Z,100819.59
2022-09-07T11:33:21.874Z,100829.13
2022-09-07T11:36:09.833Z,100819.94
2022-09-07T11:38:49.369Z,100832.09
2022-09-07T11:41:27.922Z,100830.31
2022-09-07T11:43:57.323Z,100824.91
2022-09-07T11:46:23.776Z,100826.56
2022-09-07T11:48:58.139Z,100826.50
2022-09-07T11:51:41.747Z,100827.41
2022-09-07T11:54:23.436Z,100820.00
2022-09-07T11:56:58.079Z,100816.53
2022-09-07T11:59:53.537Z,100811.78
2022-09-07T12:02:58.854Z,100819.47
2022-09-07T12:05:47.265Z,100808.25
2022-09-07T12:08:24.720Z,100808.44
2022-09-07T12:11:22.681Z,100803.97
2022-09-07T12:14:07.755Z,100809.34
2022-09-07T12:17:11.474Z,100800.38
2022-09-07T12:19:38.029Z,100806.25
2022-09-07T12:22:05.432Z,100798.78
2022-09-07T12:24:42.651Z,100807.91
2022-09-07T12:27:41.673Z,100807.06
2022-09-07T12:30:30.102Z,100798.03
2022-09-07T12:32:58.060Z,100803.09
2022-09-07T12:35:33.627Z,100801.25
2022-09-07T12:38:01.845Z,100796.31
2022-09-07T12:40:28.645Z,100790.63
2022-09-07T12:43:13.656Z,100787.31
2022-09-07T12:45:50.009Z,100784.84
2022-09-07T12:48:16.455Z,100788.44
2022-09-07T12:51:06.436Z,100786.34
2022-09-07T12:53:57.791Z,100786.66
2022-09-07T13:00:16.151Z,100771.72
2022-09-07T13:03:07.182Z,100770.47
2022-09-07T13:06:00.932Z,100770.06
2022-09-07T13:08:42.569Z,100760.19
2022-09-07T13:11:21.223Z,100783.28
2022-09-07T13:14:29.699Z,100768.44
2022-09-07T13:17:38.851Z,100762.13
2022-09-07T13:20:18.870Z,100761.75
2022-09-07T13:22:45.626Z,100765.75
2022-09-07T13:25:22.428Z,100759.38
2022-09-07T13:28:01.534Z,100736.38
2022-09-07T13:30:44.752Z,100750.59
2022-09-07T13:33:29.892Z,100748.91
2022-09-07T13:36:05.369Z,100745.41
2022-09-07T13:38:34.959Z,100741.59
2022-09-07T13:41:12.416Z,100735.25
2022-09-07T13:43:40.018Z,100723.91
2022-09-07T13:46:47.858Z,100727.19
2022-09-07T13:49:25.544Z,100717.00
2022-09-07T13:52:00.118Z,100727.22
2022-09-07T13:54:45.099Z,100723.50
2022-09-07T13:57:40.618Z,100714.97
2022-09-07T14:00:14.217Z,100714.53
2022-09-07T14:02:41.411Z,100732.78
2022-09-07T14:05:10.440Z,100727.38
2022-09-07T14:07:37.230Z,100720.47
2022-09-07T14:10:09.799Z,100712.22
2022-09-07T14:12:44.906Z,100708.09
2022-09-07T14:15:27.352Z,100704.97
2022-09-07T14:18:03.544Z,100713.13
2022-09-07T14:20:32.385Z,100713.22
2022-09-07T14:22:59.400Z,100700.03
2022-09-07T14:25:26.230Z,100698.25
2022-09-07T14:27:52.821Z,100711.97
2022-09-07T14:30:19.193Z,100711.56
2022-09-07T14:33:02.107Z,100711.47
2022-09-07T14:35:33.501Z,100710.41
2022-09-07T14:38:15.863Z,100704.53
2022-09-07T14:40:42.825Z,100704.03
2022-09-07T14:43:27.978Z,100703.53
2022-09-07T14:45:54.522Z,100698.56
2022-09-07T14:48:29.255Z,100703.19
2022-09-07T14:51:29.658Z,100698.66
2022-09-07T14:53:53.795Z,100694.44
2022-09-07T14:56:23.705Z,100696.78
2022-09-07T14:58:52.707Z,100703.09
2022-09-07T15:01:38.122Z,100685.63
2022-09-07T15:04:18.392Z,100692.25
2022-09-07T15:07:02.291Z,100696.56
2022-09-07T15:09:35.922Z,100685.81
2022-09-07T15:12:38.146Z,100686.72
2022-09-07T15:15:40.198Z,100697.50
2022-09-07T15:18:44.643Z,100687.59
2022-09-07T15:21:11.322Z,100689.81
2022-09-07T15:23:37.791Z,100681.38
2022-09-07T15:26:05.009Z,100681.00
2022-09-07T15:34:17.538Z,100669.13
2022-09-07T15:36:49.362Z,100674.22
2022-09-07T15:39:21.646Z,100676.88
2022-09-07T15:41:48.355Z,100670.88
2022-09-07T15:44:16.148Z,100662.59
2022-09-07T15:47:43.182Z,100667.84
2022-09-07T15:49:30.751Z,100662.91
2022-09-07T15:52:05.418Z,100656.50
2022-09-07T15:54:35.099Z,100664.25
2022-09-07T15:59:49.743Z,100645.69
2022-09-07T16:05:04.673Z,100654.66
2022-09-07T16:10:18.581Z,100663.13
2022-09-07T16:13:01.875Z,100661.41
2022-09-07T16:15:29.178Z,100653.34
2022-09-07T16:17:55.874Z,100654.81
2022-09-07T16:20:22.357Z,100652.44
2022-09-07T16:25:36.284Z,100649.16
2022-09-07T16:28:05.703Z,100649.44
2022-09-07T16:30:32.274Z,100639.31
2022-09-07T16:32:58.880Z,100635.94
2022-09-07T16:35:25.542Z,100646.25
2022-09-07T16:40:41.876Z,100635.16
2022-09-07T16:43:09.798Z,100633.28
2022-09-07T16:48:23.031Z,100641.63
2022-09-07T16:51:01.578Z,100643.50
2022-09-07T16:53:33.511Z,100640.41
2022-09-07T16:56:11.529Z,100639.69
2022-09-07T16:58:40.822Z,100642.72
2022-09-07T17:01:09.687Z,100640.31
2022-09-07T17:03:37.694Z,100646.59
2022-09-07T17:06:06.637Z,100646.25
2022-09-07T17:08:34.594Z,100644.34
2022-09-07T17:11:02.854Z,100643.91
2022-09-07T17:13:31.362Z,100632.84
2022-09-07T17:16:12.689Z,100636.09
2022-09-07T17:21:35.536Z,100632.41
2022-09-07T17:24:04.191Z,100631.25
2022-09-07T17:26:31.242Z,100633.00
2022-09-07T17:29:01.693Z,100614.22
2022-09-07T17:34:18.084Z,100593.66
2022-09-07T17:36:44.579Z,100610.41
2022-09-07T17:39:16.326Z,100605.59
2022-09-07T17:41:44.018Z,100603.72
2022-09-07T17:44:10.884Z,100608.56
2022-09-07T17:46:37.397Z,100605.59
2022-09-07T17:51:32.860Z,100602.22
2022-09-07T17:54:09.207Z,100605.25
2022-09-07T17:56:36.451Z,100594.56
2022-09-07T18:01:49.464Z,100596.19
2022-09-07T18:04:16.081Z,100604.31
2022-09-07T18:06:42.567Z,100607.97
2022-09-07T18:09:09.024Z,100612.41
2022-09-07T18:11:51.273Z,100620.69
2022-09-07T18:14:18.272Z,100628.53
2022-09-07T18:16:47.740Z,100629.19
2022-09-07T18:19:15.302Z,100628.16
2022-09-07T18:21:43.616Z,100624.72
2022-09-07T18:24:23.016Z,100632.72
2022-09-07T18:26:53.065Z,100631.72
2022-09-07T18:29:31.074Z,100639.13
2022-09-07T18:31:59.002Z,100644.06
2022-09-07T18:34:26.279Z,100640.78
2022-09-07T18:36:52.753Z,100629.97
2022-09-07T18:39:19.253Z,100621.16
2022-09-07T18:41:45.786Z,100606.63
2022-09-07T18:46:58.634Z,100613.97
2022-09-07T18:49:25.227Z,100624.16
2022-09-07T18:54:39.413Z,100615.50
2022-09-07T18:57:06.965Z,100617.56
2022-09-07T18:59:33.809Z,100622.03
2022-09-07T19:02:04.347Z,100619.56
2022-09-07T19:07:20.584Z,100617.06
2022-09-07T19:09:48.243Z,100614.00
2022-09-07T19:12:15.179Z,100626.44
2022-09-07T19:14:42.271Z,100623.09
2022-09-07T19:17:10.898Z,100608.69
2022-09-07T19:19:38.667Z,100621.28
2022-09-07T19:22:06.056Z,100621.44
2022-09-07T19:24:33.185Z,100621.38
2022-09-07T19:27:00.856Z,100626.25
2022-09-07T19:29:28.124Z,100621.50
2022-09-07T19:32:13.006Z,100616.91
2022-09-07T19:34:41.712Z,100616.50
2022-09-07T19:37:10.304Z,100605.19
2022-09-07T19:39:37.044Z,100599.88
2022-09-07T19:42:04.654Z,100602.75
2022-09-07T19:44:31.257Z,100601.28
2022-09-07T19:46:57.754Z,100594.34
2022-09-07T19:49:24.322Z,100601.41
2022-09-07T19:51:51.907Z,100596.06
2022-09-07T19:54:18.793Z,100583.97
2022-09-07T19:56:45.575Z,100585.63
2022-09-07T19:59:12.478Z,100586.63
2022-09-07T20:01:40.559Z,100585.38
2022-09-07T20:04:14.813Z,100578.56
2022-09-07T20:06:44.018Z,100565.41
2022-09-07T20:09:10.530Z,100564.75
2022-09-07T20:11:37.013Z,100561.59
2022-09-07T20:14:03.823Z,100560.91
2022-09-07T20:16:31.231Z,100563.00
2022-09-07T20:18:59.187Z,100561.72
2022-09-07T20:21:26.896Z,100556.88
2022-09-07T20:23:53.697Z,100550.09
2022-09-07T20:26:21.726Z,100549.97
2022-09-07T20:29:05.844Z,100545.78
2022-09-07T20:31:38.367Z,100545.13
2022-09-07T20:34:08.630Z,100542.13
2022-09-07T20:36:35.056Z,100545.56
2022-09-07T20:39:04.525Z,100548.22
2022-09-07T20:41:33.982Z,100540.66
2022-09-07T20:44:02.397Z,100541.84
2022-09-07T20:46:31.803Z,100536.47
2022-09-07T20:48:58.962Z,100530.09
2022-09-07T20:51:25.876Z,100532.00
2022-09-07T20:53:52.462Z,100530.28
2022-09-07T20:56:23.826Z,100530.53
2022-09-07T20:58:57.953Z,100530.75
2022-09-07T21:01:24.838Z,100508.09
2022-09-07T21:03:54.005Z,100513.72
2022-09-07T21:06:22.284Z,100506.88
2022-09-07T21:08:50.506Z,100502.66
2022-09-07T21:11:19.717Z,100503.41
2022-09-07T21:13:46.744Z,100511.69
2022-09-07T21:16:15.821Z,100510.41
2022-09-07T21:18:46.534Z,100504.81
2022-09-07T21:21:20.864Z,100507.47
2022-09-07T21:23:47.943Z,100507.47
2022-09-07T21:26:15.133Z,100513.59
2022-09-07T21:28:41.722Z,100512.78
2022-09-07T21:31:09.334Z,100505.53
2022-09-07T21:33:37.291Z,100512.22
2022-09-07T21:36:13.638Z,100514.38
2022-09-07T21:38:40.838Z,100507.63
2022-09-07T21:41:08.596Z,100499.88
2022-09-07T21:43:35.737Z,100505.19
2022-09-07T21:46:09.577Z,100501.53
2022-09-07T21:48:36.208Z,100494.13
2022-09-07T21:51:03.208Z,100497.94
2022-09-07T21:53:29.694Z,100496.09
2022-09-07T21:56:01.864Z,100497.09
2022-09-07T21:58:29.057Z,100489.91
2022-09-07T22:00:57.019Z,100492.00
2022-09-07T22:03:25.261Z,100502.69
2022-09-07T22:05:51.738Z,100504.97
2022-09-07T22:08:19.288Z,100504.28
2022-09-07T22:10:46.478Z,100513.84
2022-09-07T22:13:13.401Z,100505.53
2022-09-07T22:15:41.454Z,100511.13
2022-09-07T22:18:11.743Z,100519.06
2022-09-07T22:20:38.555Z,100518.44
2022-09-07T22:23:07.889Z,100512.31
2022-09-07T22:25:34.916Z,100508.09
2022-09-07T22:28:01.521Z,100505.59
2022-09-07T22:30:28.083Z,100505.38
2022-09-07T22:32:54.546Z,100500.75
2022-09-07T22:35:21.448Z,100504.38
2022-09-07T22:37:47.960Z,100500.91
2022-09-07T22:40:14.786Z,100494.53
2022-09-07T22:42:41.812Z,100483.47
2022-09-07T22:45:09.060Z,100485.28
2022-09-07T22:47:35.538Z,100479.00
2022-09-07T22:50:02.000Z,100481.47
2022-09-07T22:52:28.483Z,100478.66
2022-09-07T22:54:54.905Z,100482.75
2022-09-07T22:57:21.312Z,100477.00
2022-09-07T22:59:47.740Z,100476.09
2022-09-07T23:02:14.184Z,100475.31
2022-09-07T23:04:41.006Z,100467.22
2022-09-07T23:07:07.722Z,100466.31
2022-09-07T23:09:34.280Z,100464.13
2022-09-07T23:12:00.717Z,100461.13
2022-09-07T23:14:27.194Z,100462.94
2022-09-07T23:16:53.654Z,100448.34
2022-09-07T23:19:20.809Z,100439.75
2022-09-07T23:21:48.075Z,100430.63
2022-09-07T23:24:16.949Z,100431.91
2022-09-07T23:26:43.968Z,100430.25
2022-09-07T23:29:12.788Z,100426.25
2022-09-07T23:31:40.299Z,100433.44
2022-09-07T23:34:07.736Z,100427.50
2022-09-07T23:36:34.487Z,100428.53
2022-09-07T23:39:01.279Z,100423.41
2022-09-07T23:41:28.471Z,100416.47
2022-09-07T23:43:55.375Z,100408.91
2022-09-07T23:46:22.745Z,100399.56
2022-09-07T23:48:50.041Z,100398.41
2022-09-07T23:51:21.273Z,100395.19
2022-09-07T23:53:49.669Z,100389.91
2022-09-07T23:56:16.228Z,100376.03
2022-09-07T23:58:42.798Z,100377.44
